Portada
METAR-TAF:

METAR-TAF

Aeropuertos :

Litchfield Municipal Airport

Litchfield, Minnesota, Estados Unidos

latitud: 45-05-50N, longitud: 094-30-26W, altitud: 348 m

Observación

El informe se hizo hace 16 minutos, a las 07:56 UTC
Viento calma
Temperatura 9°C
Humedad 66%
Presión 1026 hPa
Visibilidad: 16.1 km
Cielo despejado

METAR: KLJF 310756Z AUTO 00000KT 10SM CLR 09/03 A3029 RMK AO2

Hora: 03:12 (08:12 UTC)


TAF: falta

Observaciones y pronósticos meteorológicos de más de 4000 aeropuertos (mensajes METAR y TAF).

Los puntos amarillos y rojos representan las estaciones disponibles.

Ponga el ratón en el punto deseado para ver el nombre de la estación.

Haga clic para ver las observaciones y los pronósticos meteorológicos.

Para cambiar el mapa : haga clic en los botones verdes con una cruz de color negro para hacer un zoom, en el botón verde con un guión para alejar o en las flechas verdes para mapas adyacentes.


METAR-TAF: